Main page
METAR-TAF:

METAR-TAF

Airports :

Wilbarger County Airport

Vernon, Texas, United States

latitude: 34-13-32N, longitude: 099-17-01W, elevation: 1266 ft

Current weather observation

The report was made 24 minutes ago, at 14:35 UTC
Wind 5 mph from the Southeast
Temperature 70°F
Humidity 83%
Pressure 30.13 in. Hg
Visibility: 10 miles
Broken clouds at a height of 1100 ft

METAR: KF05 211435Z AUTO 14004KT 10SM BKN011 21/18 A3013 RMK AO1 T02070177

Time: 09:59 (14:59 UTC)


TAF: missing

Weather observations and forecasts of more than 4000 airports (METAR and TAF reports).

The available stations are represented by yellow and red dots on the map.

Hover mouse over dot to see the name of the station.

Then click to see weather observations and forecasts.

To change the map : click on the green buttons with a black cross to zoom in, on the green button with a dash to zoom out, or on the green arrows for adjacent maps.


METAR-TAF: